createdAt,value
2018-02-06T00:01:22.852Z,14.82
2018-02-06T00:03:50.344Z,12.35
2018-02-06T00:06:17.816Z,14.65
2018-02-06T00:08:45.280Z,16.52
2018-02-06T00:11:13.516Z,9.93
2018-02-06T00:13:41.000Z,12.18
2018-02-06T00:16:08.494Z,12.23
2018-02-06T00:18:35.954Z,10.27
2018-02-06T00:21:03.451Z,11.38
2018-02-06T00:23:30.940Z,14.63
2018-02-06T00:25:59.230Z,12.05
2018-02-06T00:28:27.474Z,12.93
2018-02-06T00:30:54.970Z,11.05
2018-02-06T00:33:22.463Z,13.98
2018-02-06T00:35:49.950Z,13.20
2018-02-06T00:38:17.465Z,11.77
2018-02-06T00:40:44.930Z,12.85
2018-02-06T00:43:12.406Z,13.35
2018-02-06T00:45:39.876Z,12.75
2018-02-06T00:48:07.370Z,12.23
2018-02-06T00:50:34.957Z,14.93
2018-02-06T00:53:02.459Z,15.32
2018-02-06T00:55:29.973Z,11.60
2018-02-06T00:57:57.458Z,9.32
2018-02-06T01:00:24.942Z,11.55
2018-02-06T01:02:52.414Z,11.85
2018-02-06T01:05:20.729Z,12.45
2018-02-06T01:07:48.324Z,9.60
2018-02-06T01:10:16.238Z,15.18
2018-02-06T01:12:43.721Z,10.25
2018-02-06T01:15:11.204Z,11.38
2018-02-06T01:17:38.698Z,12.70
2018-02-06T01:20:06.193Z,12.68
2018-02-06T01:22:33.766Z,12.65
2018-02-06T01:25:01.242Z,11.63
2018-02-06T01:27:28.737Z,10.40
2018-02-06T01:29:56.185Z,11.73
2018-02-06T01:32:23.715Z,12.52
2018-02-06T01:34:51.288Z,10.57
2018-02-06T01:37:18.789Z,12.98
2018-02-06T01:39:46.322Z,10.30
2018-02-06T01:42:13.802Z,10.63
2018-02-06T01:44:41.429Z,13.05
2018-02-06T01:47:08.902Z,13.88
2018-02-06T01:49:36.389Z,14.18
2018-02-06T01:52:03.968Z,12.60
2018-02-06T01:54:31.463Z,14.13
2018-02-06T01:56:59.732Z,11.32
2018-02-06T01:59:27.967Z,12.10
2018-02-06T02:01:55.463Z,11.12
2018-02-06T02:04:23.733Z,14.48
2018-02-06T02:06:51.989Z,14.13
2018-02-06T02:09:19.459Z,11.63
2018-02-06T02:11:47.711Z,13.23
2018-02-06T02:14:15.200Z,13.20
2018-02-06T02:16:42.692Z,13.25
2018-02-06T02:19:10.203Z,14.23
2018-02-06T02:21:38.465Z,13.93
2018-02-06T02:24:06.030Z,11.05
2018-02-06T02:26:33.502Z,13.15
2018-02-06T02:29:00.969Z,11.93
2018-02-06T02:31:29.239Z,11.32
2018-02-06T02:33:57.466Z,14.25
2018-02-06T02:36:24.970Z,14.95
2018-02-06T02:38:53.216Z,14.50
2018-02-06T02:41:20.802Z,16.20
2018-02-06T04:39:25.250Z,23.73
2018-02-06T04:41:53.304Z,15.63
2018-02-06T04:44:21.622Z,17.27
2018-02-06T04:46:49.212Z,18.35
2018-02-06T04:49:16.742Z,19.42
2018-02-06T04:51:45.160Z,19.35
2018-02-06T04:54:12.706Z,21.25
2018-02-06T04:56:40.218Z,16.73
2018-02-06T04:59:07.726Z,22.90
2018-02-06T05:01:35.234Z,12.02
2018-02-06T05:04:02.712Z,21.10
2018-02-06T05:06:30.409Z,15.98
2018-02-06T05:08:57.922Z,20.98
2018-02-06T05:11:29.585Z,19.65
2018-02-06T05:13:57.170Z,23.02
2018-02-06T05:16:24.723Z,22.25
2018-02-06T05:18:52.272Z,22.30
2018-02-06T05:21:20.345Z,21.83
2018-02-06T05:23:47.832Z,17.02
2018-02-06T05:26:15.366Z,16.90
2018-02-06T05:28:43.134Z,18.95
2018-02-06T05:31:10.637Z,20.80
2018-02-06T05:33:38.127Z,21.23
2018-02-06T05:36:06.220Z,22.05
2018-02-06T05:38:33.688Z,20.75
2018-02-06T05:41:01.162Z,19.52
2018-02-06T05:43:28.680Z,20.62
2018-02-06T05:45:56.167Z,19.12
2018-02-06T05:48:23.679Z,18.92
2018-02-06T05:50:51.176Z,20.88
2018-02-06T05:53:18.674Z,27.83
2018-02-06T05:55:46.194Z,15.75
2018-02-06T05:58:13.687Z,20.52
2018-02-06T06:00:41.184Z,17.85
2018-02-06T06:03:09.446Z,19.65
2018-02-06T06:05:37.040Z,18.23
2018-02-06T06:08:04.515Z,23.58
2018-02-06T06:10:31.995Z,17.80
2018-02-06T06:12:59.469Z,22.60
2018-02-06T06:15:26.947Z,21.02
2018-02-06T06:17:54.595Z,20.58
2018-02-06T06:20:22.171Z,25.55
2018-02-06T06:22:49.650Z,20.40
2018-02-06T06:25:17.135Z,18.52
2018-02-06T06:27:44.634Z,20.88
2018-02-06T06:30:12.187Z,18.70
2018-02-06T06:32:39.675Z,20.98
2018-02-06T06:35:07.166Z,20.92
2018-02-06T06:37:34.919Z,23.30
2018-02-06T06:40:02.410Z,22.00
2018-02-06T06:42:29.991Z,22.80
2018-02-06T06:44:59.062Z,21.73
2018-02-06T06:47:26.578Z,22.13
2018-02-06T06:49:54.104Z,26.10
2018-02-06T06:52:21.606Z,18.75
2018-02-06T06:54:49.077Z,17.65
2018-02-06T06:57:16.546Z,20.90
2018-02-06T06:59:44.024Z,21.50
2018-02-06T07:02:11.534Z,18.87
2018-02-06T07:04:39.018Z,21.25
2018-02-06T07:07:06.554Z,22.08
2018-02-06T07:09:34.117Z,20.67
2018-02-06T07:12:01.955Z,24.70
2018-02-06T07:14:29.670Z,27.70
2018-02-06T07:16:59.862Z,23.38
2018-02-06T07:19:27.632Z,20.62
2018-02-06T07:21:55.109Z,23.48
2018-02-06T07:24:22.602Z,20.27
2018-02-06T07:26:50.105Z,17.25
2018-02-06T07:29:17.594Z,21.12
2018-02-06T07:31:45.159Z,17.60
2018-02-06T07:34:12.800Z,23.62
2018-02-06T07:36:40.884Z,19.10
2018-02-06T07:39:08.338Z,22.90
2018-02-06T07:41:35.930Z,19.25
2018-02-06T07:44:03.432Z,19.23
2018-02-06T07:46:30.910Z,20.45
2018-02-06T07:48:58.578Z,19.62
2018-02-06T07:51:26.723Z,20.58
2018-02-06T07:53:54.217Z,21.23
2018-02-06T07:56:21.687Z,19.77
2018-02-06T07:58:49.963Z,21.45
2018-02-06T08:01:18.262Z,23.17
2018-02-06T08:03:45.701Z,22.85
2018-02-06T08:06:14.048Z,20.42
2018-02-06T08:08:41.538Z,20.52
2018-02-06T08:11:09.769Z,21.10
2018-02-06T08:13:37.312Z,19.70
2018-02-06T08:16:04.795Z,20.05
2018-02-06T08:18:32.273Z,18.23
2018-02-06T08:21:00.516Z,19.85
2018-02-06T08:23:27.989Z,23.70
2018-02-06T08:25:55.486Z,22.77
2018-02-06T08:28:23.039Z,19.02
2018-02-06T08:30:50.501Z,17.48
2018-02-06T08:33:18.042Z,20.30
2018-02-06T08:35:46.281Z,19.98
2018-02-06T08:38:13.769Z,17.30
2018-02-06T08:40:42.002Z,18.62
2018-02-06T08:43:09.478Z,21.15
2018-02-06T08:45:36.962Z,16.70
2018-02-06T08:48:05.230Z,13.77
2018-02-06T08:50:32.694Z,16.75
2018-02-06T08:53:00.166Z,13.10
2018-02-06T08:55:27.640Z,16.65
2018-02-06T08:57:55.116Z,14.25
2018-02-06T09:00:22.630Z,23.17
2018-02-06T09:02:50.853Z,14.35
2018-02-06T09:05:18.345Z,15.20
2018-02-06T09:07:45.845Z,15.38
2018-02-06T09:10:13.319Z,15.77
2018-02-06T09:12:40.774Z,14.15
2018-02-06T09:15:08.274Z,14.90
2018-02-06T09:17:35.736Z,17.80
2018-02-06T09:20:03.233Z,18.62
2018-02-06T09:22:30.708Z,14.43
2018-02-06T09:24:58.157Z,12.60
2018-02-06T09:27:25.623Z,13.98
2018-02-06T09:29:53.072Z,12.90
2018-02-06T09:32:20.543Z,17.58
2018-02-06T09:34:48.016Z,13.07
2018-02-06T09:37:15.461Z,16.40
2018-02-06T09:39:42.946Z,14.38
2018-02-06T09:42:10.411Z,12.35
2018-02-06T09:44:38.633Z,12.18
2018-02-06T09:47:06.105Z,10.25
2018-02-06T09:49:33.556Z,9.60
2018-02-06T09:52:01.006Z,8.57
2018-02-06T09:54:28.551Z,10.30
2018-02-06T09:56:56.017Z,9.63
2018-02-06T09:59:23.470Z,8.70
2018-02-06T10:01:51.054Z,11.95
2018-02-06T10:04:18.525Z,8.45
2018-02-06T10:06:45.996Z,7.55
2018-02-06T10:09:13.450Z,8.38
2018-02-06T10:11:40.929Z,9.10
2018-02-06T10:14:09.189Z,8.73
2018-02-06T10:16:36.681Z,11.77
2018-02-06T10:19:04.153Z,6.50
2018-02-06T10:21:31.620Z,8.55
2018-02-06T10:23:59.097Z,7.15
2018-02-06T10:26:26.557Z,8.00
2018-02-06T10:28:54.027Z,8.70
2018-02-06T10:31:21.510Z,8.15
2018-02-06T10:33:49.166Z,8.15
2018-02-06T10:36:16.645Z,8.40
2018-02-06T10:38:44.126Z,8.30
2018-02-06T10:41:11.608Z,6.53
2018-02-06T10:43:39.082Z,8.25
2018-02-06T10:46:06.534Z,6.95
2018-02-06T10:48:34.787Z,7.00
2018-02-06T10:51:02.256Z,8.65
2018-02-06T10:53:29.717Z,9.68
2018-02-06T10:55:57.169Z,6.30
2018-02-06T10:58:24.641Z,5.70
2018-02-06T11:00:52.886Z,7.03
2018-02-06T11:03:20.356Z,8.23
2018-02-06T11:05:47.802Z,5.50
2018-02-06T11:08:15.362Z,7.47
2018-02-06T11:10:42.821Z,7.78
2018-02-06T11:13:10.306Z,7.15
2018-02-06T11:15:38.551Z,6.50
2018-02-06T11:18:06.019Z,7.93
2018-02-06T11:20:33.489Z,5.55
2018-02-06T11:23:00.937Z,9.85
2018-02-06T11:25:28.401Z,5.20
2018-02-06T11:27:55.878Z,7.32
2018-02-06T11:30:23.337Z,8.38
2018-02-06T11:32:50.791Z,5.30
2018-02-06T11:35:18.419Z,8.68
2018-02-06T11:37:45.870Z,7.87
2018-02-06T11:40:13.341Z,7.03
2018-02-06T11:42:40.844Z,7.45
2018-02-06T11:45:08.314Z,7.35
2018-02-06T11:47:35.770Z,9.20
2018-02-06T11:50:03.246Z,6.28
2018-02-06T11:52:30.730Z,6.47
2018-02-06T11:54:58.191Z,6.75
2018-02-06T11:57:25.671Z,6.25
2018-02-06T11:59:53.205Z,9.60
2018-02-06T12:02:20.681Z,6.60
2018-02-06T12:04:48.171Z,7.47
2018-02-06T12:07:15.681Z,5.82
2018-02-06T12:09:43.137Z,6.70
2018-02-06T12:12:11.350Z,5.78
2018-02-06T12:14:38.814Z,5.15
2018-02-06T12:17:06.356Z,7.50
2018-02-06T12:19:33.956Z,7.62
2018-02-06T12:22:01.455Z,6.25
2018-02-06T12:24:28.922Z,6.47
2018-02-06T12:26:56.404Z,9.90
2018-02-06T12:29:23.863Z,9.32
2018-02-06T12:31:51.430Z,8.43
2018-02-06T12:34:18.898Z,7.78
2018-02-06T12:36:46.335Z,8.60
2018-02-06T12:39:13.774Z,6.72
2018-02-06T12:41:41.245Z,6.80
2018-02-06T12:44:08.870Z,9.00
2018-02-06T12:46:36.369Z,8.38
2018-02-06T12:49:03.849Z,7.65
2018-02-06T12:51:31.314Z,7.30
2018-02-06T12:53:58.849Z,7.97
2018-02-06T12:56:26.317Z,6.90
2018-02-06T12:58:53.790Z,10.65
2018-02-06T13:01:21.516Z,7.75
2018-02-06T13:03:48.994Z,8.38
2018-02-06T13:06:16.449Z,5.95
2018-02-06T13:08:43.912Z,9.98
2018-02-06T13:11:11.421Z,7.07
2018-02-06T13:13:39.112Z,8.20
2018-02-06T13:16:06.564Z,7.75
2018-02-06T13:18:34.034Z,9.25
2018-02-06T13:21:01.506Z,8.63
2018-02-06T13:23:29.028Z,5.80
2018-02-06T13:25:56.664Z,8.23
2018-02-06T13:28:24.876Z,6.10
2018-02-06T13:30:52.376Z,6.37
2018-02-06T13:33:19.957Z,10.23
2018-02-06T13:35:47.418Z,5.30
2018-02-06T13:38:14.859Z,6.97
2018-02-06T13:40:42.314Z,5.65
2018-02-06T13:43:10.573Z,5.80
2018-02-06T13:45:38.038Z,7.10
2018-02-06T13:48:05.493Z,4.97
2018-02-06T13:50:32.952Z,6.12
2018-02-06T13:53:00.405Z,6.82
2018-02-06T13:55:27.874Z,5.62
2018-02-06T13:57:56.141Z,5.68
2018-02-06T14:00:23.602Z,6.03
2018-02-06T14:02:51.063Z,7.20
2018-02-06T14:05:18.541Z,5.53
2018-02-06T14:07:45.988Z,6.37
2018-02-06T14:10:14.248Z,5.90
2018-02-06T14:12:41.645Z,4.82
2018-02-06T14:15:09.101Z,5.87
2018-02-06T14:17:36.551Z,4.82
2018-02-06T14:20:04.061Z,5.60
2018-02-06T14:22:31.507Z,6.20
2018-02-06T14:24:58.995Z,5.30
2018-02-06T14:27:27.199Z,6.20
2018-02-06T14:29:54.672Z,8.15
2018-02-06T14:32:22.125Z,4.78
2018-02-06T14:34:49.582Z,4.53
2018-02-06T14:37:17.021Z,5.30
2018-02-06T14:39:44.471Z,6.50
2018-02-06T14:42:11.954Z,5.10
2018-02-06T14:44:40.138Z,6.25
2018-02-06T14:47:07.571Z,7.00
2018-02-06T14:49:35.071Z,6.03
2018-02-06T14:52:02.511Z,6.72
2018-02-06T14:54:29.966Z,6.62
2018-02-06T14:56:57.455Z,6.82
2018-02-06T14:59:24.893Z,7.78
2018-02-06T15:01:52.334Z,5.62
2018-02-06T15:04:19.795Z,8.10
2018-02-06T15:06:47.233Z,5.50
2018-02-06T15:09:14.685Z,8.80
2018-02-06T15:11:42.141Z,6.35
2018-02-06T15:14:09.605Z,7.43
2018-02-06T15:16:37.102Z,8.93
2018-02-06T15:19:04.572Z,9.10
2018-02-06T15:21:32.041Z,10.05
2018-02-06T15:24:00.269Z,6.32
2018-02-06T15:26:27.726Z,9.70
2018-02-06T15:28:55.221Z,7.28
2018-02-06T15:31:22.669Z,10.55
2018-02-06T15:33:50.115Z,7.28
2018-02-06T15:36:17.561Z,8.60
2018-02-06T15:38:45.009Z,8.55
2018-02-06T15:41:12.466Z,9.60
2018-02-06T15:43:39.967Z,6.95
2018-02-06T15:46:08.205Z,7.90
2018-02-06T15:48:35.674Z,8.00
2018-02-06T15:51:03.119Z,8.77
2018-02-06T15:53:31.312Z,7.95
2018-02-06T15:55:58.804Z,7.75
2018-02-06T15:58:26.270Z,6.12
2018-02-06T16:01:03.609Z,8.43
2018-02-06T16:03:31.074Z,8.40
2018-02-06T16:05:58.550Z,6.97
2018-02-06T16:08:26.047Z,7.72
2018-02-06T16:10:53.527Z,7.55
2018-02-06T16:13:21.040Z,9.00
2018-02-06T16:15:48.488Z,8.38
2018-02-06T16:18:15.971Z,9.23
2018-02-06T16:20:43.454Z,12.20
2018-02-06T16:23:10.902Z,9.27
2018-02-06T16:25:38.371Z,11.30
2018-02-06T16:28:05.861Z,9.52
2018-02-06T16:30:33.311Z,15.82
2018-02-06T16:33:00.777Z,9.45
2018-02-06T16:35:28.232Z,10.60
2018-02-06T16:37:56.454Z,10.85
2018-02-06T16:40:23.988Z,11.52
2018-02-06T16:42:51.429Z,9.45
2018-02-06T16:45:18.882Z,8.70
2018-02-06T16:47:47.128Z,8.90
2018-02-06T16:50:14.586Z,10.95
2018-02-06T16:52:42.041Z,10.85
2018-02-06T16:55:09.498Z,10.15
2018-02-06T16:57:36.970Z,10.25
2018-02-06T17:00:04.481Z,10.63
2018-02-06T17:02:42.954Z,10.60
2018-02-06T17:05:10.619Z,11.50
2018-02-06T17:07:38.130Z,8.90
2018-02-06T17:10:05.611Z,10.60
2018-02-06T17:12:33.150Z,11.38
2018-02-06T17:15:00.621Z,14.65
2018-02-06T17:17:28.117Z,10.88
2018-02-06T17:19:56.387Z,11.10
2018-02-06T17:22:23.942Z,12.52
2018-02-06T17:24:51.763Z,10.10
2018-02-06T17:27:19.299Z,12.65
2018-02-06T17:29:46.828Z,13.70
2018-02-06T17:32:14.314Z,13.27
2018-02-06T17:34:41.777Z,9.35
2018-02-06T17:37:09.250Z,8.65
2018-02-06T17:39:36.752Z,11.77
2018-02-06T17:42:04.358Z,10.50
2018-02-06T17:44:31.850Z,10.02
2018-02-06T17:46:59.366Z,10.57
2018-02-06T17:49:27.108Z,8.80
2018-02-06T17:51:57.358Z,11.88
2018-02-06T17:54:26.941Z,14.27
2018-02-06T17:56:55.359Z,15.10
2018-02-06T17:59:25.508Z,13.98
2018-02-06T18:01:54.011Z,11.57
2018-02-06T18:04:21.681Z,11.23
2018-02-06T18:06:51.985Z,13.52
2018-02-06T18:09:24.999Z,14.70
2018-02-06T18:11:55.105Z,14.05
2018-02-06T18:14:24.441Z,12.65
2018-02-06T18:17:06.305Z,11.75
2018-02-06T18:19:36.557Z,9.77
2018-02-06T18:22:04.212Z,11.15
2018-02-06T18:24:31.698Z,14.73
2018-02-06T18:26:59.265Z,13.80
2018-02-06T18:29:26.737Z,12.75
2018-02-06T18:31:54.195Z,15.45
2018-02-06T18:34:22.455Z,16.30
2018-02-06T18:36:49.993Z,12.55
2018-02-06T18:39:17.761Z,13.30
2018-02-06T18:41:46.018Z,14.87
2018-02-06T18:44:13.573Z,14.15
2018-02-06T18:46:41.150Z,16.67
2018-02-06T18:49:08.610Z,13.65
2018-02-06T18:51:36.283Z,14.02
2018-02-06T18:54:04.131Z,14.40
2018-02-06T18:56:31.767Z,16.48
2018-02-06T18:58:59.314Z,17.98
2018-02-06T19:01:26.865Z,17.95
2018-02-06T19:03:55.110Z,15.98
2018-02-06T19:06:22.573Z,17.67
2018-02-06T19:08:50.039Z,13.00
2018-02-06T19:11:17.551Z,15.93
2018-02-06T19:13:45.304Z,12.32
2018-02-06T19:16:12.787Z,15.55
2018-02-06T19:18:40.265Z,22.13
2018-02-06T19:21:07.728Z,21.08
2018-02-06T19:23:35.193Z,16.80
2018-02-06T19:26:02.648Z,13.77
2018-02-06T19:28:30.116Z,12.57
2018-02-06T19:30:57.579Z,16.20
2018-02-06T19:33:25.042Z,16.33
2018-02-06T19:35:52.496Z,18.87
2018-02-06T19:38:19.953Z,17.40
2018-02-06T19:40:47.409Z,13.65
2018-02-06T19:43:14.876Z,17.92
2018-02-06T19:45:42.349Z,16.85
2018-02-06T19:48:09.870Z,18.02
2018-02-06T19:50:38.342Z,18.90
2018-02-06T19:56:18.843Z,17.02
2018-02-06T19:58:46.473Z,23.27
2018-02-06T20:01:13.979Z,24.95
2018-02-06T20:03:41.460Z,25.45
2018-02-06T20:06:09.062Z,22.70
2018-02-06T20:08:37.725Z,21.35
2018-02-06T20:11:05.517Z,18.20
2018-02-06T20:13:33.144Z,18.87
2018-02-06T20:16:03.006Z,20.90
2018-02-06T20:18:30.608Z,16.85
2018-02-06T20:20:58.305Z,18.70
2018-02-06T20:23:25.859Z,20.80
2018-02-06T20:25:54.116Z,18.33
2018-02-06T20:28:21.617Z,17.08
2018-02-06T20:30:49.224Z,16.33
2018-02-06T20:33:16.872Z,21.20
2018-02-06T20:35:44.513Z,22.40
2018-02-06T20:38:12.053Z,19.70
2018-02-06T20:40:39.550Z,17.95
2018-02-06T20:43:07.147Z,21.12
2018-02-06T20:45:34.755Z,17.90
2018-02-06T20:48:02.226Z,21.17
2018-02-06T20:50:29.686Z,26.50
2018-02-06T20:52:57.170Z,20.42
2018-02-06T20:55:24.668Z,21.80
2018-02-06T20:57:52.157Z,22.95
2018-02-06T21:00:19.635Z,20.08
2018-02-06T21:02:47.194Z,19.77
2018-02-06T21:05:14.674Z,21.25
2018-02-06T21:07:42.288Z,18.90
2018-02-06T21:10:10.059Z,19.12
2018-02-06T21:12:38.480Z,21.75
2018-02-06T21:15:06.301Z,18.10
2018-02-06T21:17:33.813Z,19.62
2018-02-06T21:20:01.293Z,15.65
2018-02-06T21:22:28.804Z,17.73
2018-02-06T21:24:56.284Z,16.55
2018-02-06T21:27:24.546Z,22.48
2018-02-06T21:29:52.015Z,17.45
2018-02-06T21:32:20.517Z,16.42
2018-02-06T21:34:47.992Z,19.27
2018-02-06T21:37:15.462Z,21.75
2018-02-06T21:39:42.961Z,22.58
2018-02-06T21:42:10.658Z,21.27
2018-02-06T21:44:38.141Z,20.42
2018-02-06T21:47:05.637Z,22.13
2018-02-06T21:49:33.130Z,17.55
2018-02-06T21:52:00.620Z,17.05
2018-02-06T21:54:28.427Z,17.77
2018-02-06T21:56:55.926Z,18.65
2018-02-06T21:59:23.418Z,19.55
2018-02-06T22:01:50.938Z,20.05
2018-02-06T22:04:18.416Z,23.25
2018-02-06T22:06:46.087Z,16.08
2018-02-06T22:09:13.666Z,17.48
2018-02-06T22:11:41.197Z,21.17
2018-02-06T22:14:08.802Z,18.45
2018-02-06T22:16:36.664Z,17.60
2018-02-06T22:19:04.184Z,19.23
2018-02-06T22:21:31.667Z,19.48
2018-02-06T22:23:59.901Z,17.85
2018-02-06T22:26:29.092Z,20.65
2018-02-06T22:28:56.589Z,18.67
2018-02-06T22:31:24.054Z,18.33
2018-02-06T22:33:51.557Z,19.25
2018-02-06T22:36:19.076Z,19.37
2018-02-06T22:38:46.598Z,19.23
2018-02-06T22:41:14.079Z,16.00
2018-02-06T22:43:41.578Z,15.52
2018-02-06T22:46:09.155Z,16.10
2018-02-06T22:48:36.634Z,19.20
2018-02-06T22:51:04.184Z,18.83
2018-02-06T22:53:31.680Z,19.37
2018-02-06T22:55:59.926Z,17.33
2018-02-06T22:58:27.405Z,19.60
2018-02-06T23:00:54.870Z,16.12
2018-02-06T23:03:23.161Z,18.40
2018-02-06T23:05:51.402Z,20.67
2018-02-06T23:08:18.881Z,17.90
2018-02-06T23:10:46.418Z,23.20
2018-02-06T23:13:13.893Z,20.12
2018-02-06T23:15:41.422Z,19.95
2018-02-06T23:18:08.929Z,20.08
2018-02-06T23:20:36.429Z,20.85
2018-02-06T23:23:03.918Z,19.92
2018-02-06T23:25:31.447Z,23.23
2018-02-06T23:27:59.041Z,17.00
2018-02-06T23:30:26.551Z,21.35
2018-02-06T23:32:54.823Z,19.37
2018-02-06T23:35:22.340Z,19.73
2018-02-06T23:37:50.593Z,19.98
2018-02-06T23:40:18.067Z,23.77
2018-02-06T23:42:45.539Z,21.73
2018-02-06T23:45:13.031Z,22.15
2018-02-06T23:47:40.592Z,23.85
2018-02-06T23:50:08.094Z,16.80
2018-02-06T23:52:35.571Z,23.70
2018-02-06T23:55:03.277Z,19.90
2018-02-06T23:57:30.750Z,18.75
2018-02-06T23:59:58.370Z,23.42
